Terminal Aerodrome Forecast
Issued by NWS Sioux Falls, SD

Home | Current Version | Previous Version | Graphics & Text | Print | Product List | Glossary On
Versions: 1 2 3 4 5 6 7 8 9 10 11 12
000
FTUS43 KFSD 042322
TAFFSD
TAF
KFSD 042322Z 0500/0524 17012KT P6SM SCT040 BKN250
     FM050200 16008KT P6SM FEW120 SCT250
     FM050900 16010KT P6SM SCT080
     FM051400 17014G20KT P6SM SCT060
     FM051900 17018G26KT P6SM SCT040=

USA.gov is the U.S. government's official web portal to all federal, state and local government web resources and services.